createdAt,value
2018-11-26T00:01:22.535Z,95.40
2018-11-26T00:03:49.847Z,95.60
2018-11-26T00:06:17.472Z,95.40
2018-11-26T00:08:44.948Z,95.20
2018-11-26T00:11:33.697Z,95.30
2018-11-26T00:14:01.062Z,95.40
2018-11-26T00:16:28.413Z,95.40
2018-11-26T00:18:56.025Z,95.40
2018-11-26T00:21:23.305Z,95.50
2018-11-26T00:23:50.591Z,95.40
2018-11-26T00:26:17.885Z,95.40
2018-11-26T00:28:46.367Z,95.30
2018-11-26T00:31:12.613Z,95.30
2018-11-26T00:33:40.260Z,95.40
2018-11-26T00:36:07.544Z,95.20
2018-11-26T00:38:34.839Z,95.10
2018-11-26T00:41:02.128Z,95.30
2018-11-26T00:43:29.831Z,95.40
2018-11-26T00:45:57.128Z,95.40
2018-11-26T00:48:24.422Z,95.40
2018-11-26T00:50:51.735Z,95.40
2018-11-26T00:53:19.101Z,95.20
2018-11-26T00:55:46.455Z,95.10
2018-11-26T00:58:13.796Z,95.20
2018-11-26T01:00:41.119Z,95.40
2018-11-26T01:03:10.511Z,95.20
2018-11-26T01:05:40.483Z,95.20
2018-11-26T01:08:07.837Z,95.30
2018-11-26T01:10:35.143Z,95.40
2018-11-26T01:13:02.456Z,95.30
2018-11-26T01:15:29.748Z,95.10
2018-11-26T01:17:57.125Z,95.20
2018-11-26T01:20:24.407Z,95.20
2018-11-26T01:22:51.688Z,95.20
2018-11-26T01:25:18.971Z,95.20
2018-11-26T01:27:46.262Z,95.30
2018-11-26T01:30:13.564Z,95.10
2018-11-26T01:32:41.068Z,95.10
2018-11-26T01:35:08.505Z,95.30
2018-11-26T01:37:35.794Z,95.00
2018-11-26T01:40:03.957Z,95.10
2018-11-26T01:42:31.368Z,94.90
2018-11-26T01:44:58.656Z,94.90
2018-11-26T01:47:25.931Z,94.90
2018-11-26T01:49:53.217Z,95.10
2018-11-26T01:52:20.496Z,95.00
2018-11-26T01:54:47.820Z,95.00
2018-11-26T01:57:15.443Z,94.90
2018-11-26T01:59:42.728Z,94.80
2018-11-26T02:02:10.004Z,95.10
2018-11-26T02:04:37.327Z,95.30
2018-11-26T02:07:05.412Z,95.20
2018-11-26T02:09:32.792Z,95.20
2018-11-26T02:12:00.085Z,95.20
2018-11-26T02:14:27.388Z,95.20
2018-11-26T02:16:54.692Z,94.90
2018-11-26T02:19:21.983Z,95.00
2018-11-26T02:21:49.300Z,95.10
2018-11-26T02:24:18.010Z,95.20
2018-11-26T02:26:45.521Z,95.10
2018-11-26T02:29:13.247Z,95.00
2018-11-26T02:31:40.735Z,95.00
2018-11-26T02:34:08.246Z,95.00
2018-11-26T02:36:35.737Z,95.20
2018-11-26T02:39:04.528Z,95.00
2018-11-26T02:41:32.420Z,95.00
2018-11-26T02:43:59.936Z,95.10
2018-11-26T02:46:27.390Z,95.00
2018-11-26T02:48:54.880Z,95.00
2018-11-26T02:51:22.370Z,95.00
2018-11-26T02:53:49.868Z,95.00
2018-11-26T02:56:18.519Z,95.00
2018-11-26T02:58:45.987Z,94.90
2018-11-26T03:01:13.785Z,94.80
2018-11-26T03:03:41.294Z,94.90
2018-11-26T03:06:09.095Z,95.00
2018-11-26T03:08:36.615Z,94.70
2018-11-26T03:11:04.798Z,94.90
2018-11-26T03:13:32.090Z,95.00
2018-11-26T03:16:01.224Z,95.10
2018-11-26T03:18:28.524Z,95.00
2018-11-26T03:20:55.828Z,94.80
2018-11-26T03:23:23.662Z,94.90
2018-11-26T03:25:50.952Z,94.90
2018-11-26T03:28:18.236Z,94.80
2018-11-26T03:30:45.609Z,94.70
2018-11-26T03:33:12.942Z,94.70
2018-11-26T03:35:42.455Z,94.70
2018-11-26T03:38:12.367Z,94.80
2018-11-26T03:40:39.892Z,94.70
2018-11-26T03:43:07.237Z,94.90
2018-11-26T03:45:35.201Z,95.00
2018-11-26T03:48:02.484Z,95.00
2018-11-26T03:50:29.768Z,94.90
2018-11-26T03:52:57.055Z,94.90
2018-11-26T03:55:24.391Z,94.80
2018-11-26T03:57:52.104Z,95.00
2018-11-26T04:00:19.408Z,94.90
2018-11-26T04:02:46.669Z,94.70
2018-11-26T04:05:14.176Z,94.90
2018-11-26T04:07:41.479Z,94.90
2018-11-26T04:10:10.718Z,94.90
2018-11-26T04:12:37.991Z,94.90
2018-11-26T04:15:07.094Z,94.80
2018-11-26T04:17:34.492Z,94.90
2018-11-26T04:20:01.829Z,95.00
2018-11-26T04:22:29.099Z,95.20
2018-11-26T04:24:56.384Z,95.10
2018-11-26T04:27:25.898Z,95.00
2018-11-26T04:29:53.164Z,94.90
2018-11-26T04:32:20.513Z,94.90
2018-11-26T04:34:47.883Z,94.80
2018-11-26T04:37:15.217Z,94.70
2018-11-26T04:39:42.527Z,94.80
2018-11-26T04:42:09.988Z,94.70
2018-11-26T04:44:37.338Z,94.70
2018-11-26T04:47:04.788Z,94.80
2018-11-26T04:49:32.091Z,94.70
2018-11-26T04:51:59.402Z,94.70
2018-11-26T04:54:26.701Z,94.80
2018-11-26T04:56:53.988Z,94.90
2018-11-26T04:59:21.276Z,94.80
2018-11-26T05:01:48.752Z,94.90
2018-11-26T05:04:17.843Z,94.90
2018-11-26T05:06:45.476Z,94.80
2018-11-26T05:09:12.753Z,94.70
2018-11-26T05:11:40.048Z,94.80
2018-11-26T05:14:07.332Z,94.80
2018-11-26T05:16:34.895Z,94.70
2018-11-26T05:19:02.152Z,94.80
2018-11-26T05:21:29.440Z,94.70
2018-11-26T05:23:56.707Z,94.90
2018-11-26T05:26:24.567Z,94.80
2018-11-26T05:28:52.047Z,94.90
2018-11-26T05:31:19.865Z,94.90
2018-11-26T05:33:47.543Z,94.70
2018-11-26T05:36:15.032Z,94.80
2018-11-26T05:38:42.627Z,94.70
2018-11-26T05:41:10.191Z,94.80
2018-11-26T05:43:37.664Z,94.70
2018-11-26T05:46:05.224Z,94.80
2018-11-26T05:48:34.417Z,94.80
2018-11-26T05:51:01.902Z,94.60
2018-11-26T05:53:29.469Z,94.70
2018-11-26T05:55:56.955Z,94.60
2018-11-26T05:58:24.479Z,94.70
2018-11-26T06:00:51.961Z,94.70
2018-11-26T06:03:19.512Z,94.70
2018-11-26T06:05:47.020Z,94.40
2018-11-26T06:08:14.747Z,94.50
2018-11-26T06:10:42.235Z,94.80
2018-11-26T06:13:09.784Z,94.70
2018-11-26T06:15:37.273Z,94.70
2018-11-26T06:18:04.996Z,94.90
2018-11-26T06:20:32.480Z,94.80
2018-11-26T06:22:59.940Z,94.70
2018-11-26T06:25:27.465Z,94.80
2018-11-26T06:27:54.943Z,94.80
2018-11-26T06:30:22.403Z,94.80
2018-11-26T06:32:49.864Z,94.90
2018-11-26T06:35:24.193Z,94.70
2018-11-26T06:37:51.693Z,94.80
2018-11-26T06:40:19.202Z,94.80
2018-11-26T06:42:46.695Z,94.80
2018-11-26T06:45:18.769Z,94.80
2018-11-26T06:47:47.871Z,94.90
2018-11-26T06:50:16.384Z,95.00
2018-11-26T06:52:44.083Z,95.00
2018-11-26T06:55:13.383Z,95.10
2018-11-26T06:57:40.667Z,95.10
2018-11-26T07:00:09.817Z,95.00
2018-11-26T07:02:37.152Z,95.00
2018-11-26T07:05:07.421Z,94.90
2018-11-26T07:07:34.953Z,95.00
2018-11-26T07:10:02.348Z,95.00
2018-11-26T07:12:29.628Z,95.00
2018-11-26T07:14:56.949Z,95.10
2018-11-26T07:17:24.250Z,95.00
2018-11-26T07:19:51.528Z,94.90
2018-11-26T07:22:20.099Z,95.00
2018-11-26T07:24:47.683Z,95.10
2018-11-26T07:27:15.347Z,95.30
2018-11-26T07:29:42.240Z,95.00
2018-11-26T07:32:09.607Z,94.90
2018-11-26T07:34:36.952Z,95.10
2018-11-26T07:37:05.041Z,94.90
2018-11-26T07:39:32.326Z,94.80
2018-11-26T07:41:59.584Z,94.50
2018-11-26T07:44:26.880Z,94.80
2018-11-26T07:46:54.148Z,94.70
2018-11-26T07:49:21.589Z,94.50
2018-11-26T07:51:49.063Z,94.90
2018-11-26T07:54:16.851Z,94.90
2018-11-26T07:56:44.901Z,94.90
2018-11-26T07:59:12.375Z,94.80
2018-11-26T08:01:39.859Z,94.90
2018-11-26T08:04:07.320Z,94.70
2018-11-26T08:06:34.803Z,94.80
2018-11-26T08:09:03.508Z,95.00
2018-11-26T08:11:30.812Z,94.80
2018-11-26T08:13:58.089Z,94.70
2018-11-26T08:16:25.447Z,95.00
2018-11-26T08:18:52.748Z,95.00
2018-11-26T08:21:20.228Z,95.00
2018-11-26T08:23:47.664Z,94.80
2018-11-26T08:26:15.248Z,94.90
2018-11-26T08:28:42.553Z,95.00
2018-11-26T08:31:09.835Z,94.70
2018-11-26T08:33:37.367Z,94.70
2018-11-26T08:36:11.089Z,94.70
2018-11-26T08:38:44.156Z,94.60
2018-11-26T08:41:14.147Z,94.60
2018-11-26T08:44:47.500Z,94.60
2018-11-26T08:47:18.114Z,94.80
2018-11-26T08:49:45.658Z,94.70
2018-11-26T08:52:12.925Z,94.60
2018-11-26T08:54:40.208Z,94.60
2018-11-26T08:57:07.527Z,94.50
2018-11-26T08:59:34.791Z,94.50
2018-11-26T09:02:06.675Z,94.70
2018-11-26T09:04:36.363Z,94.40
2018-11-26T09:07:04.417Z,94.40
2018-11-26T09:09:32.899Z,94.40
2018-11-26T09:11:59.695Z,94.40
2018-11-26T09:14:26.996Z,94.30
2018-11-26T09:16:54.262Z,94.40
2018-11-26T09:19:26.373Z,94.50
2018-11-26T09:21:54.563Z,94.30
2018-11-26T09:24:23.691Z,94.50
2018-11-26T09:26:51.015Z,94.50
2018-11-26T09:29:18.336Z,94.50
2018-11-26T09:31:45.720Z,94.50
2018-11-26T09:34:12.987Z,94.30
2018-11-26T09:36:40.311Z,94.10
2018-11-26T09:39:11.531Z,94.20
2018-11-26T09:41:40.160Z,94.20
2018-11-26T09:44:06.563Z,94.30
2018-11-26T09:46:34.393Z,94.40
2018-11-26T09:49:01.766Z,94.40
2018-11-26T09:51:37.047Z,94.30
2018-11-26T09:54:00.732Z,94.00
2018-11-26T09:56:28.072Z,94.30
2018-11-26T09:58:55.344Z,94.20
2018-11-26T10:01:22.867Z,94.20
2018-11-26T10:03:50.148Z,94.10
2018-11-26T10:06:19.621Z,94.10
2018-11-26T10:08:46.924Z,94.50
2018-11-26T10:11:14.219Z,94.00
2018-11-26T10:13:41.517Z,94.20
2018-11-26T10:16:08.812Z,94.20
2018-11-26T10:18:36.079Z,94.10
2018-11-26T10:21:06.100Z,94.20
2018-11-26T10:23:33.418Z,94.10
2018-11-26T10:26:00.705Z,94.00
2018-11-26T10:28:27.960Z,93.80
2018-11-26T10:30:55.240Z,93.90
2018-11-26T10:33:22.536Z,94.00
2018-11-26T10:35:51.655Z,94.00
2018-11-26T10:38:18.949Z,94.10
2018-11-26T10:40:46.209Z,94.00
2018-11-26T10:43:13.557Z,93.80
2018-11-26T10:45:40.880Z,93.80
2018-11-26T10:48:08.189Z,93.70
2018-11-26T10:50:35.570Z,93.60
2018-11-26T10:53:02.868Z,93.30
2018-11-26T10:55:31.551Z,93.50
2018-11-26T10:57:58.957Z,93.50
2018-11-26T11:00:32.073Z,93.50
2018-11-26T11:02:59.355Z,93.60
2018-11-26T11:05:26.792Z,93.40
2018-11-26T11:07:54.119Z,93.30
2018-11-26T11:10:22.778Z,93.40
2018-11-26T11:12:50.112Z,93.30
2018-11-26T11:15:17.446Z,93.30
2018-11-26T11:17:45.004Z,93.30
2018-11-26T11:20:15.371Z,93.40
2018-11-26T11:22:42.918Z,93.20
2018-11-26T11:25:11.824Z,93.10
2018-11-26T11:27:39.331Z,93.20
2018-11-26T11:30:23.021Z,93.20
2018-11-26T11:32:50.353Z,93.10
2018-11-26T11:35:17.902Z,93.10
2018-11-26T11:37:47.198Z,92.90
2018-11-26T11:40:20.765Z,92.50
2018-11-26T11:42:48.248Z,92.40
2018-11-26T11:45:15.648Z,92.30
2018-11-26T11:47:43.039Z,92.40
2018-11-26T11:50:12.232Z,92.50
2018-11-26T11:52:39.572Z,92.50
2018-11-26T11:55:09.389Z,92.60
2018-11-26T11:57:36.768Z,92.40
2018-11-26T12:00:08.711Z,92.20
2018-11-26T12:02:38.215Z,92.10
2018-11-26T12:05:06.685Z,92.20
2018-11-26T12:07:33.972Z,92.20
2018-11-26T12:10:01.286Z,92.00
2018-11-26T12:12:28.609Z,92.40
2018-11-26T12:14:55.932Z,92.20
2018-11-26T12:17:23.205Z,92.20
2018-11-26T12:19:50.674Z,92.30
2018-11-26T12:22:17.979Z,92.20
2018-11-26T12:24:45.423Z,92.10
2018-11-26T12:27:12.716Z,91.80
2018-11-26T12:29:40.235Z,91.90
2018-11-26T12:32:07.556Z,91.50
2018-11-26T12:34:34.914Z,91.30
2018-11-26T12:37:02.325Z,91.20
2018-11-26T12:39:29.650Z,91.30
2018-11-26T12:41:56.969Z,91.40
2018-11-26T12:44:36.457Z,91.30
2018-11-26T12:47:03.961Z,91.50
2018-11-26T12:49:31.277Z,91.20
2018-11-26T12:51:58.587Z,91.50
2018-11-26T12:54:25.902Z,91.40
2018-11-26T12:56:53.221Z,91.20
2018-11-26T12:59:20.646Z,91.40
2018-11-26T13:01:48.681Z,91.10
2018-11-26T13:04:15.994Z,91.10
2018-11-26T13:06:43.297Z,91.20
2018-11-26T13:09:10.597Z,91.60
2018-11-26T13:11:37.873Z,91.70
2018-11-26T13:14:05.332Z,91.50
2018-11-26T13:16:32.650Z,91.20
2018-11-26T13:19:02.190Z,90.60
2018-11-26T13:21:29.465Z,91.00
2018-11-26T13:23:56.761Z,90.50
2018-11-26T13:26:24.101Z,91.00
2018-11-26T13:28:51.811Z,91.10
2018-11-26T13:31:19.228Z,90.60
2018-11-26T13:33:46.555Z,90.90
2018-11-26T13:36:14.118Z,66.00
2018-11-26T13:38:41.294Z,68.80
2018-11-26T13:41:08.688Z,71.30
2018-11-26T13:43:36.337Z,72.50
2018-11-26T13:46:04.365Z,71.50
2018-11-26T13:48:31.855Z,66.90
2018-11-26T13:50:59.239Z,68.80
2018-11-26T13:53:26.572Z,69.10
2018-11-26T13:55:53.868Z,71.20
2018-11-26T14:00:53.482Z,70.20
2018-11-26T14:03:20.790Z,61.60
2018-11-26T14:05:48.381Z,62.20
2018-11-26T14:08:15.695Z,57.30
2018-11-26T14:10:42.978Z,59.30
2018-11-26T14:13:15.700Z,60.70
2018-11-26T14:15:43.472Z,61.40
2018-11-26T14:18:10.910Z,61.80
2018-11-26T14:20:38.249Z,60.40
2018-11-26T14:23:05.893Z,60.80
2018-11-26T14:25:33.218Z,61.80
2018-11-26T14:28:02.016Z,61.10
2018-11-26T14:30:29.802Z,61.00
2018-11-26T14:32:57.224Z,60.90
2018-11-26T14:35:24.575Z,61.80
2018-11-26T14:38:04.108Z,63.00
2018-11-26T14:40:35.898Z,61.70
2018-11-26T14:43:03.233Z,62.40
2018-11-26T14:45:30.529Z,63.40
2018-11-26T14:47:57.838Z,64.90
2018-11-26T14:50:25.157Z,66.00
2018-11-26T14:52:54.890Z,66.70
2018-11-26T14:55:24.429Z,66.80
2018-11-26T14:57:51.985Z,66.50
2018-11-26T15:00:20.104Z,63.50
2018-11-26T15:02:47.681Z,62.20
2018-11-26T15:05:15.258Z,60.30
2018-11-26T15:07:42.926Z,63.10
2018-11-26T15:10:18.711Z,64.50
2018-11-26T15:12:46.200Z,63.30
2018-11-26T15:15:18.385Z,63.30
2018-11-26T15:17:45.961Z,63.30
2018-11-26T15:20:22.793Z,62.80
2018-11-26T15:22:50.827Z,63.20
2018-11-26T15:25:20.455Z,61.70
2018-11-26T15:27:47.868Z,60.60
2018-11-26T15:30:16.297Z,59.60
2018-11-26T15:32:43.717Z,61.50
2018-11-26T15:35:12.261Z,62.70
2018-11-26T15:37:39.707Z,61.40
2018-11-26T15:40:07.986Z,60.10
2018-11-26T15:42:35.320Z,61.50
2018-11-26T15:45:02.808Z,61.50
2018-11-26T15:47:30.112Z,62.10
2018-11-26T15:49:57.442Z,59.90
2018-11-26T15:52:24.795Z,61.30
2018-11-26T15:54:52.123Z,61.30
2018-11-26T15:57:19.489Z,55.90
2018-11-26T15:59:46.828Z,53.90
2018-11-26T16:02:14.200Z,55.80
2018-11-26T16:04:41.589Z,58.00
2018-11-26T16:07:09.130Z,54.70
2018-11-26T16:09:36.475Z,54.70
2018-11-26T16:12:04.773Z,54.80
2018-11-26T16:14:32.380Z,56.80
2018-11-26T16:17:00.366Z,59.60
2018-11-26T16:19:27.761Z,58.70
2018-11-26T16:21:55.177Z,61.60
2018-11-26T16:24:22.534Z,62.70
2018-11-26T16:26:49.873Z,56.30
2018-11-26T16:29:17.165Z,59.20
2018-11-26T16:31:44.553Z,60.60
2018-11-26T16:34:11.950Z,59.80
2018-11-26T16:36:39.262Z,59.50
2018-11-26T16:39:08.222Z,61.40
2018-11-26T16:41:35.528Z,59.60
2018-11-26T16:44:02.853Z,60.60
2018-11-26T16:46:30.157Z,58.40
2018-11-26T16:48:57.498Z,60.20
2018-11-26T16:51:24.874Z,59.30
2018-11-26T16:53:52.201Z,58.80
2018-11-26T16:56:20.169Z,59.30
2018-11-26T16:58:47.489Z,59.00
2018-11-26T17:01:14.784Z,57.40
2018-11-26T17:03:43.141Z,58.10
2018-11-26T17:06:10.689Z,55.50
2018-11-26T17:08:38.093Z,57.20
2018-11-26T17:11:05.604Z,59.20
2018-11-26T17:13:32.915Z,62.40
2018-11-26T17:16:00.240Z,61.70
2018-11-26T17:18:27.554Z,62.40
2018-11-26T17:20:54.861Z,62.20
2018-11-26T17:23:22.314Z,58.50
2018-11-26T17:25:49.625Z,61.00
2018-11-26T17:28:16.900Z,60.10
2018-11-26T17:30:44.572Z,59.10
2018-11-26T17:33:12.045Z,58.10
2018-11-26T17:35:39.445Z,60.10
2018-11-26T17:38:07.060Z,59.00
2018-11-26T17:40:35.031Z,60.30
2018-11-26T17:43:02.372Z,62.40
2018-11-26T17:45:29.664Z,64.70
2018-11-26T17:47:58.286Z,65.70
2018-11-26T17:50:34.345Z,64.20
2018-11-26T17:53:01.842Z,63.00
2018-11-26T17:55:29.416Z,63.60
2018-11-26T17:57:56.986Z,62.50
2018-11-26T18:00:26.100Z,59.90
2018-11-26T18:02:53.737Z,60.80
2018-11-26T18:05:22.612Z,63.40
2018-11-26T18:07:53.116Z,62.30
2018-11-26T18:10:20.865Z,62.80
2018-11-26T18:12:48.910Z,62.20
2018-11-26T18:15:16.552Z,62.00
2018-11-26T18:17:45.073Z,61.40
2018-11-26T18:20:14.854Z,62.30
2018-11-26T18:22:43.397Z,59.90
2018-11-26T18:25:11.401Z,61.40
2018-11-26T18:27:41.384Z,60.90
2018-11-26T18:30:12.441Z,60.40
2018-11-26T18:32:39.958Z,61.90
2018-11-26T18:35:07.532Z,57.90
2018-11-26T18:37:35.102Z,61.20
2018-11-26T18:40:02.673Z,61.30
2018-11-26T18:42:30.326Z,59.40
2018-11-26T18:44:59.089Z,57.90
2018-11-26T18:47:26.625Z,56.80
2018-11-26T18:49:54.109Z,55.80
2018-11-26T18:52:21.683Z,54.90
2018-11-26T18:54:49.249Z,56.00
2018-11-26T18:57:16.802Z,58.40
2018-11-26T18:59:44.386Z,60.10
2018-11-26T19:02:11.981Z,59.30
2018-11-26T19:04:39.586Z,56.00
2018-11-26T19:07:07.157Z,56.60
2018-11-26T19:09:34.726Z,57.30
2018-11-26T19:12:04.143Z,53.90
2018-11-26T19:14:30.015Z,55.30
2018-11-26T19:16:57.747Z,54.70
2018-11-26T19:19:25.242Z,51.80
2018-11-26T19:21:53.250Z,52.90
2018-11-26T19:24:20.817Z,52.40
2018-11-26T19:26:49.277Z,53.20
2018-11-26T19:29:16.933Z,54.30
2018-11-26T19:31:44.651Z,53.90
2018-11-26T19:34:12.220Z,54.20
2018-11-26T19:36:39.770Z,54.00
2018-11-26T19:39:08.140Z,53.50
2018-11-26T19:41:37.060Z,55.00
2018-11-26T19:44:05.007Z,53.10
2018-11-26T19:46:32.671Z,51.30
2018-11-26T19:49:00.284Z,50.50
2018-11-26T19:51:27.865Z,49.90
2018-11-26T19:53:55.493Z,49.70
2018-11-26T19:56:23.391Z,49.90
2018-11-26T19:58:50.948Z,51.10
2018-11-26T20:01:19.795Z,51.10
2018-11-26T20:03:50.026Z,49.20
2018-11-26T20:06:19.596Z,50.80
2018-11-26T20:08:49.480Z,51.40
2018-11-26T20:11:16.985Z,51.10
2018-11-26T20:13:44.771Z,49.30
2018-11-26T20:16:14.899Z,48.70
2018-11-26T20:18:43.068Z,51.00
2018-11-26T20:21:10.864Z,51.80
2018-11-26T20:23:38.419Z,50.60
2018-11-26T20:26:06.072Z,51.70
2018-11-26T20:28:34.376Z,52.90
2018-11-26T20:31:02.007Z,52.60
2018-11-26T20:33:29.571Z,50.30
2018-11-26T20:35:57.116Z,50.20
2018-11-26T20:38:24.801Z,50.10
2018-11-26T20:40:52.383Z,52.40
2018-11-26T20:43:19.916Z,51.30
2018-11-26T20:45:48.411Z,52.20
2018-11-26T20:48:16.059Z,54.50
2018-11-26T20:50:46.078Z,53.90
2018-11-26T20:53:19.550Z,54.90
2018-11-26T20:55:47.085Z,53.20
2018-11-26T20:58:15.602Z,52.30
2018-11-26T21:00:43.413Z,52.30
2018-11-26T21:03:11.354Z,53.30
2018-11-26T21:05:39.700Z,53.50
2018-11-26T21:08:07.217Z,53.30
2018-11-26T21:10:34.872Z,53.40
2018-11-26T21:13:02.340Z,52.90
2018-11-26T21:15:29.995Z,53.80
2018-11-26T21:17:58.115Z,56.50
2018-11-26T21:20:29.379Z,56.70
2018-11-26T21:22:57.607Z,57.20
2018-11-26T21:25:25.156Z,56.50
2018-11-26T21:27:52.616Z,56.50
2018-11-26T21:30:20.260Z,55.60
2018-11-26T21:32:47.810Z,57.80
2018-11-26T21:35:16.620Z,58.20
2018-11-26T21:37:46.474Z,58.70
2018-11-26T21:40:20.057Z,59.70
2018-11-26T21:42:42.677Z,60.60
2018-11-26T21:45:11.568Z,59.50
2018-11-26T21:47:39.740Z,58.70
2018-11-26T21:50:09.992Z,57.70
2018-11-26T21:52:38.864Z,55.90
2018-11-26T21:55:11.497Z,55.40
2018-11-26T21:57:38.988Z,57.30
2018-11-26T22:00:18.981Z,56.50
2018-11-26T22:02:46.577Z,57.30
2018-11-26T22:05:14.416Z,56.50
2018-11-26T22:07:41.905Z,57.10
2018-11-26T22:10:13.836Z,56.80
2018-11-26T22:12:42.188Z,58.80
2018-11-26T22:15:11.254Z,59.70
2018-11-26T22:17:39.077Z,58.40
2018-11-26T22:20:10.469Z,58.10
2018-11-26T22:22:38.020Z,58.80
2018-11-26T22:25:06.809Z,57.60
2018-11-26T22:27:34.316Z,58.10
2018-11-26T22:30:02.064Z,57.90
2018-11-26T22:32:29.597Z,57.70
2018-11-26T22:34:57.169Z,58.20
2018-11-26T22:37:24.737Z,58.20
2018-11-26T22:39:52.216Z,58.30
2018-11-26T22:42:19.768Z,58.90
2018-11-26T22:44:47.300Z,60.20
2018-11-26T22:47:14.745Z,60.10
2018-11-26T22:49:42.225Z,59.80
2018-11-26T22:52:09.761Z,60.20
2018-11-26T22:54:37.531Z,58.60
2018-11-26T22:57:05.544Z,58.10
2018-11-26T22:59:33.122Z,58.20
2018-11-26T23:02:00.767Z,58.00
2018-11-26T23:04:28.428Z,57.90
2018-11-26T23:06:55.992Z,57.90
2018-11-26T23:09:23.568Z,57.50
2018-11-26T23:11:51.182Z,57.60
2018-11-26T23:14:18.704Z,57.60
2018-11-26T23:16:46.271Z,58.20
2018-11-26T23:19:13.776Z,59.30
2018-11-26T23:21:41.445Z,60.90
2018-11-26T23:24:08.922Z,58.90
2018-11-26T23:26:36.444Z,58.70
2018-11-26T23:29:04.095Z,59.70
2018-11-26T23:31:31.723Z,59.10
2018-11-26T23:33:59.236Z,58.70
2018-11-26T23:36:26.802Z,59.30
2018-11-26T23:38:54.282Z,59.70
2018-11-26T23:41:21.753Z,59.70
2018-11-26T23:43:50.102Z,58.90
2018-11-26T23:46:17.617Z,59.30
2018-11-26T23:48:45.300Z,59.10
2018-11-26T23:51:12.744Z,58.80
2018-11-26T23:53:40.281Z,59.30
2018-11-26T23:56:07.780Z,60.00
2018-11-26T23:58:35.224Z,59.10
